Time;durP1;ratioP1;P1;durP2;ratioP2;P2;SDS_P1;SDS_P2;PMS_P1;PMS_P2;Temp;Humidity;BMP_temperature;BMP_pressure;BME280_temperature;BME280_humidity;BME280_pressure;Samples;Min_cycle;Max_cycle;Signal;HPM_P1;HPM_P2
2022/12/02 00:00:29;;;;;;;92.50;34.97;;;;;;;-145.68;100.00;63218.00;10405931;28;20239;-74
2022/12/02 00:05:32;;;;;;;92.87;34.97;;;;;;;-145.68;100.00;63218.00;10414414;28;20545;-74
2022/12/02 00:10:33;;;;;;;100.17;37.73;;;;;;;-145.68;100.00;63218.00;10397040;28;20192;-74
2022/12/02 00:15:41;;;;;;;99.70;37.80;;;;;;;-145.68;100.00;63218.00;10414114;28;20649;-74
2022/12/02 00:20:42;;;;;;;98.80;35.83;;;;;;;-145.68;100.00;63218.00;10413819;28;20209;-74
2022/12/02 00:25:45;;;;;;;97.87;37.43;;;;;;;-145.68;100.00;63218.00;10395468;28;20812;-74
2022/12/02 00:30:46;;;;;;;97.30;36.60;;;;;;;-145.68;100.00;63218.00;10410626;28;20733;-74
2022/12/02 00:35:46;;;;;;;97.33;36.80;;;;;;;-145.68;100.00;63218.00;10411643;28;20203;-74
2022/12/02 00:40:46;;;;;;;103.70;36.53;;;;;;;-145.68;100.00;63218.00;10412943;28;20450;-74
2022/12/02 00:51:06;;;;;;;98.30;36.17;;;;;;;-145.68;100.00;63218.00;10394740;28;20239;-74
2022/12/02 00:56:07;;;;;;;99.43;38.50;;;;;;;-145.68;100.00;63218.00;10412331;28;20247;-74
2022/12/02 01:01:08;;;;;;;89.10;35.33;;;;;;;-145.68;100.00;63218.00;10411772;28;20242;-74
2022/12/02 01:06:10;;;;;;;87.67;34.47;;;;;;;-145.68;100.00;63218.00;10411499;28;20193;-74
2022/12/02 01:11:11;;;;;;;93.33;37.53;;;;;;;-145.68;100.00;63218.00;10393740;28;20197;-75
2022/12/02 01:16:11;;;;;;;89.97;35.73;;;;;;;-145.68;100.00;63218.00;10411046;28;20562;-74
2022/12/02 01:21:12;;;;;;;89.27;33.83;;;;;;;-145.68;100.00;63218.00;10410872;28;20240;-74
2022/12/02 01:26:12;;;;;;;89.47;36.93;;;;;;;-145.68;100.00;63218.00;10392767;28;20228;-74
2022/12/02 01:31:14;;;;;;;93.53;35.10;;;;;;;-145.68;100.00;63218.00;10411088;28;20191;-74
2022/12/02 01:36:14;;;;;;;89.73;34.23;;;;;;;-145.68;100.00;63218.00;10410695;28;20195;-74
2022/12/02 01:41:14;;;;;;;100.23;37.33;;;;;;;-145.68;100.00;63218.00;10410099;28;20217;-74
2022/12/02 01:46:16;;;;;;;94.93;35.80;;;;;;;-145.68;100.00;63218.00;10410352;28;20199;-74
2022/12/02 01:51:16;;;;;;;98.87;36.80;;;;;;;-145.68;100.00;63218.00;10410369;28;20562;-74
2022/12/02 01:56:16;;;;;;;92.43;35.30;;;;;;;-145.68;100.00;63218.00;10391879;28;20581;-74
2022/12/02 02:01:28;;;;;;;95.80;34.77;;;;;;;-145.68;100.00;63218.00;10387717;28;20277;-74
2022/12/02 02:06:34;;;;;;;102.90;33.87;;;;;;;-145.68;100.00;63218.00;10450503;28;20564;-75
2022/12/02 02:11:37;;;;;;;102.40;36.87;;;;;;;-145.68;100.00;63218.00;10415943;28;20208;-74
2022/12/02 02:16:38;;;;;;;104.57;37.43;;;;;;;-145.68;100.00;63218.00;10433067;28;20195;-74
2022/12/02 02:21:46;;;;;;;102.73;36.17;;;;;;;-145.68;100.00;63218.00;10413974;28;20684;-74
2022/12/02 02:26:47;;;;;;;100.70;36.47;;;;;;;-145.68;100.00;63218.00;10431996;28;20247;-74
2022/12/02 02:31:48;;;;;;;107.53;37.77;;;;;;;-145.68;100.00;63218.00;10431419;28;20267;-74
2022/12/02 02:36:48;;;;;;;105.43;37.33;;;;;;;-145.68;100.00;63218.00;10431452;28;20211;-74
2022/12/02 02:41:49;;;;;;;113.43;38.47;;;;;;;-145.68;100.00;63218.00;10448802;28;20245;-74
2022/12/02 02:46:50;;;;;;;111.37;35.53;;;;;;;-145.68;100.00;63218.00;10448996;28;20209;-74
2022/12/02 02:51:52;;;;;;;103.57;36.00;;;;;;;-145.68;100.00;63218.00;10427407;28;20699;-74
2022/12/02 02:56:52;;;;;;;110.50;36.97;;;;;;;-145.68;100.00;63218.00;10414579;28;20188;-74
2022/12/02 03:01:53;;;;;;;95.57;34.73;;;;;;;-145.68;100.00;63218.00;10430748;28;20219;-74
2022/12/02 03:06:54;;;;;;;91.83;34.60;;;;;;;-145.68;100.00;63218.00;10430903;28;20194;-74
2022/12/02 03:11:55;;;;;;;86.37;32.83;;;;;;;-145.68;100.00;63218.00;10430211;28;20183;-74
2022/12/02 03:16:58;;;;;;;97.60;32.93;;;;;;;-145.68;100.00;63218.00;10448789;28;20199;-75
2022/12/02 03:21:58;;;;;;;95.40;32.90;;;;;;;-145.68;100.00;63218.00;10429060;28;20234;-75
2022/12/02 03:26:59;;;;;;;92.13;33.33;;;;;;;-145.68;100.00;63218.00;10430386;28;20231;-74
2022/12/02 03:32:00;;;;;;;89.67;33.50;;;;;;;-145.68;100.00;63218.00;10430802;28;20283;-74
2022/12/02 03:37:00;;;;;;;89.20;34.67;;;;;;;-145.68;100.00;63218.00;10437283;28;20226;-74
2022/12/02 03:42:00;;;;;;;82.07;31.90;;;;;;;-145.68;100.00;63218.00;10456071;28;20219;-74
2022/12/02 03:47:01;;;;;;;92.73;33.60;;;;;;;-145.68;100.00;63218.00;10455854;28;20193;-74
2022/12/02 03:52:01;;;;;;;87.03;33.53;;;;;;;-145.68;100.00;63218.00;10455387;28;20200;-75
2022/12/02 03:57:05;;;;;;;92.00;34.43;;;;;;;-145.68;100.00;63218.00;10455855;28;20506;-73
2022/12/02 04:02:06;;;;;;;88.10;34.97;;;;;;;-145.68;100.00;63218.00;10435733;28;20223;-75
2022/12/02 04:07:06;;;;;;;86.50;33.93;;;;;;;-145.68;100.00;63218.00;10450565;28;20604;-73
2022/12/02 04:12:07;;;;;;;88.63;34.83;;;;;;;-145.68;100.00;63218.00;10447481;28;20200;-74
2022/12/02 04:17:07;;;;;;;83.37;33.27;;;;;;;-145.68;100.00;63218.00;10448459;28;20750;-75
2022/12/02 04:22:07;;;;;;;82.00;34.73;;;;;;;-145.68;100.00;63218.00;10446332;28;20234;-74
2022/12/02 04:27:08;;;;;;;69.60;32.27;;;;;;;-145.68;100.00;63218.00;10448156;28;20232;-74
2022/12/02 04:32:08;;;;;;;69.37;31.07;;;;;;;-145.68;100.00;63218.00;10447774;28;20184;-74
2022/12/02 04:37:09;;;;;;;76.73;33.77;;;;;;;-145.68;100.00;63218.00;10447889;28;20676;-75
2022/12/02 04:42:09;;;;;;;68.87;32.40;;;;;;;-145.68;100.00;63218.00;10447409;28;20219;-75
2022/12/02 04:47:09;;;;;;;76.20;32.47;;;;;;;-145.68;100.00;63218.00;10446436;28;20264;-74
2022/12/02 04:52:10;;;;;;;70.83;32.30;;;;;;;-145.68;100.00;63218.00;10446561;28;20195;-75
2022/12/02 04:57:10;;;;;;;75.70;32.40;;;;;;;-145.68;100.00;63218.00;10446757;28;20188;-74
2022/12/02 05:02:10;;;;;;;71.13;31.73;;;;;;;-145.68;100.00;63218.00;10449166;28;20224;-75
2022/12/02 05:07:11;;;;;;;70.20;31.70;;;;;;;-145.68;100.00;63218.00;10453395;28;20724;-75
2022/12/02 05:12:11;;;;;;;74.47;32.83;;;;;;;-145.68;100.00;63218.00;10453217;28;20187;-75
2022/12/02 05:17:12;;;;;;;68.07;30.97;;;;;;;-145.68;100.00;63218.00;10435123;28;20204;-74
2022/12/02 05:22:12;;;;;;;71.80;32.13;;;;;;;-145.68;100.00;63218.00;10452196;28;20581;-74
2022/12/02 05:27:13;;;;;;;70.73;32.50;;;;;;;-145.68;100.00;63218.00;10452532;28;20239;-74
2022/12/02 05:32:13;;;;;;;70.07;32.83;;;;;;;-145.68;100.00;63218.00;10452620;28;20261;-75
2022/12/02 05:37:13;;;;;;;68.93;32.60;;;;;;;-145.68;100.00;63218.00;10452187;28;20203;-74
2022/12/02 05:42:14;;;;;;;72.40;33.03;;;;;;;-145.68;100.00;63218.00;10451610;28;20691;-75
2022/12/02 05:47:16;;;;;;;65.63;30.97;;;;;;;-145.68;100.00;63218.00;10452420;28;20288;-75
2022/12/02 05:52:24;;;;;;;68.97;31.30;;;;;;;-145.68;100.00;63218.00;10451391;28;20192;-74
2022/12/02 05:57:27;;;;;;;64.70;30.90;;;;;;;-145.68;100.00;63218.00;10450886;28;20195;-75
2022/12/02 06:02:33;;;;;;;67.47;32.17;;;;;;;-145.68;100.00;63218.00;10450492;28;20208;-75
2022/12/02 06:07:33;;;;;;;67.57;31.67;;;;;;;-145.68;100.00;63218.00;10434140;28;20522;-75
2022/12/02 06:12:33;;;;;;;66.77;31.47;;;;;;;-145.68;100.00;63218.00;10443299;28;20184;-75
2022/12/02 06:17:34;;;;;;;70.07;32.33;;;;;;;-145.68;100.00;63218.00;10409340;28;20184;-75
2022/12/02 06:22:34;;;;;;;66.93;31.40;;;;;;;-145.68;100.00;63218.00;10449236;28;20212;-75
2022/12/02 06:27:35;;;;;;;70.70;32.30;;;;;;;-145.68;100.00;63218.00;10450931;28;20249;-76
2022/12/02 06:32:37;;;;;;;66.17;30.07;;;;;;;-145.68;100.00;63218.00;10449652;28;20202;-74
2022/12/02 06:37:38;;;;;;;67.50;33.40;;;;;;;-145.68;100.00;63218.00;10432405;28;20212;-74
2022/12/02 06:42:38;;;;;;;71.10;31.73;;;;;;;-145.68;100.00;63218.00;10431794;28;20211;-75
2022/12/02 06:47:46;;;;;;;69.33;31.63;;;;;;;-145.68;100.00;63218.00;10449580;28;20199;-74
2022/12/02 06:52:47;;;;;;;64.03;31.67;;;;;;;-145.68;100.00;63218.00;10431871;28;20192;-74
2022/12/02 06:57:48;;;;;;;71.20;31.47;;;;;;;-145.68;100.00;63218.00;10431642;28;20207;-75
2022/12/02 07:02:49;;;;;;;67.53;31.07;;;;;;;-145.68;100.00;63218.00;10448623;28;20212;-74
2022/12/02 07:07:50;;;;;;;64.17;29.73;;;;;;;-145.68;100.00;63218.00;10449182;28;20737;-74
2022/12/02 07:12:51;;;;;;;65.87;30.40;;;;;;;-145.68;100.00;63218.00;10429022;28;20196;-74
2022/12/02 07:17:52;;;;;;;66.07;30.73;;;;;;;-145.68;100.00;63218.00;10449033;28;20245;-74
2022/12/02 07:22:58;;;;;;;61.63;29.00;;;;;;;-145.68;100.00;63218.00;10429803;28;20227;-74
2022/12/02 07:27:58;;;;;;;62.80;30.80;;;;;;;-145.68;100.00;63218.00;10427964;28;20568;-74
2022/12/02 07:32:59;;;;;;;72.03;34.03;;;;;;;-145.68;100.00;63218.00;10430606;28;20199;-74
2022/12/02 07:38:00;;;;;;;83.37;37.60;;;;;;;-145.68;100.00;63218.00;10430791;28;20240;-74
2022/12/02 07:43:01;;;;;;;67.47;32.00;;;;;;;-145.68;100.00;63218.00;10430377;28;20664;-74
2022/12/02 07:48:02;;;;;;;74.50;35.27;;;;;;;-145.68;100.00;63218.00;10448382;28;20237;-74
2022/12/02 07:53:03;;;;;;;62.00;32.50;;;;;;;-145.68;100.00;63218.00;10448007;28;20184;-75
2022/12/02 07:58:03;;;;;;;71.47;31.13;;;;;;;-145.68;100.00;63218.00;10445520;28;20199;-74
2022/12/02 08:03:03;;;;;;;71.50;35.60;;;;;;;-145.68;100.00;63218.00;10443500;28;20192;-74
2022/12/02 08:08:04;;;;;;;62.20;33.93;;;;;;;-145.68;100.00;63218.00;10446292;28;20226;-74
2022/12/02 08:13:04;;;;;;;60.73;28.50;;;;;;;-145.68;100.00;63218.00;10444551;28;20200;-74
2022/12/02 08:18:05;;;;;;;55.37;28.97;;;;;;;-145.68;100.00;63218.00;10446801;28;20203;-74
2022/12/02 08:23:06;;;;;;;59.73;29.10;;;;;;;-145.68;100.00;63218.00;10451802;28;20231;-74
2022/12/02 08:28:06;;;;;;;58.20;29.83;;;;;;;-145.68;100.00;63218.00;10454622;28;20188;-74
2022/12/02 08:33:07;;;;;;;55.93;28.53;;;;;;;-145.68;100.00;63218.00;10454980;28;20908;-74
2022/12/02 08:38:07;;;;;;;50.20;26.03;;;;;;;-145.68;100.00;63218.00;10451937;28;20261;-74
2022/12/02 08:43:07;;;;;;;62.83;29.50;;;;;;;-145.68;100.00;63218.00;10436287;28;20199;-74
2022/12/02 08:48:08;;;;;;;55.67;28.63;;;;;;;-145.68;100.00;63218.00;10436538;28;20211;-74
2022/12/02 08:53:08;;;;;;;55.67;28.10;;;;;;;-145.68;100.00;63218.00;10453626;28;20188;-75
2022/12/02 08:58:09;;;;;;;56.50;26.77;;;;;;;-145.68;100.00;63218.00;10453589;28;20188;-74
2022/12/02 09:03:10;;;;;;;54.30;27.60;;;;;;;-145.68;100.00;63218.00;10453977;28;20196;-74
2022/12/02 09:08:10;;;;;;;48.03;25.13;;;;;;;-145.68;100.00;63218.00;10452932;28;20230;-75
2022/12/02 09:13:11;;;;;;;45.63;24.70;;;;;;;-145.68;100.00;63218.00;10446082;28;20246;-74
2022/12/02 09:18:11;;;;;;;47.27;24.27;;;;;;;-145.68;100.00;63218.00;10418725;28;20192;-75
2022/12/02 09:23:11;;;;;;;47.87;25.00;;;;;;;-145.68;100.00;63218.00;10429098;28;20673;-74
2022/12/02 09:28:12;;;;;;;52.73;26.77;;;;;;;-145.68;100.00;63218.00;10426276;28;20208;-74
2022/12/02 09:33:12;;;;;;;39.10;17.97;;;;;;;-145.68;100.00;63218.00;10422914;28;20263;-74
2022/12/02 09:38:12;;;;;;;48.73;23.23;;;;;;;-145.68;100.00;63218.00;10433188;28;20216;-74
2022/12/02 09:43:13;;;;;;;45.43;25.23;;;;;;;-145.68;100.00;63218.00;10416343;28;20258;-74
2022/12/02 09:48:13;;;;;;;52.07;26.60;;;;;;;-145.68;100.00;63218.00;10432265;28;20192;-74
2022/12/02 09:53:16;;;;;;;51.53;26.80;;;;;;;-145.68;100.00;63218.00;10443259;28;20259;-75
2022/12/02 09:58:18;;;;;;;50.60;25.50;;;;;;;-145.68;100.00;63218.00;10408010;28;20685;-74
2022/12/02 10:03:22;;;;;;;47.43;24.63;;;;;;;-145.68;100.00;63218.00;10427086;28;20227;-74
2022/12/02 10:08:25;;;;;;;47.20;25.07;;;;;;;-145.68;100.00;63218.00;10413906;28;20192;-75
2022/12/02 10:13:26;;;;;;;47.30;25.23;;;;;;;-145.68;100.00;63218.00;10409484;28;20592;-74
2022/12/02 10:18:28;;;;;;;48.30;24.37;;;;;;;-145.68;100.00;63218.00;10424393;28;20208;-75
2022/12/02 10:23:29;;;;;;;47.60;24.07;;;;;;;-145.68;100.00;63218.00;10424610;28;20255;-72
2022/12/02 10:28:31;;;;;;;43.90;24.23;;;;;;;-145.68;100.00;63218.00;10446333;28;20180;-74
2022/12/02 10:33:35;;;;;;;45.70;22.13;;;;;;;-145.68;100.00;63218.00;10444188;28;20215;-75
2022/12/02 10:38:39;;;;;;;47.57;24.93;;;;;;;-145.68;100.00;63218.00;10411086;28;20225;-74
2022/12/02 10:44:12;;;;;;;42.07;24.07;;;;;;;-145.68;100.00;63218.00;10425432;28;20203;-73
2022/12/02 10:49:23;;;;;;;44.70;23.10;;;;;;;-145.68;100.00;63218.00;10438662;28;20546;-74
2022/12/02 10:54:30;;;;;;;49.60;24.47;;;;;;;-145.68;100.00;63218.00;10427290;28;20561;-75
2022/12/02 10:59:31;;;;;;;47.83;24.17;;;;;;;-145.68;100.00;63218.00;10444781;28;20215;-74
2022/12/02 11:04:32;;;;;;;52.10;24.80;;;;;;;-145.68;100.00;63218.00;10426839;28;20199;-75
2022/12/02 11:09:32;;;;;;;35.73;16.90;;;;;;;-145.68;100.00;63218.00;10426972;28;20207;-75
2022/12/02 11:14:38;;;;;;;44.27;23.10;;;;;;;-145.68;100.00;63218.00;10413597;28;20563;-74
2022/12/02 11:19:43;;;;;;;44.87;23.67;;;;;;;-145.68;100.00;63218.00;10410999;28;20217;-74
2022/12/02 11:24:44;;;;;;;48.03;23.87;;;;;;;-145.68;100.00;63218.00;10402769;28;20236;-74
2022/12/02 11:30:03;;;;;;;47.27;23.67;;;;;;;-145.68;100.00;63218.00;10430929;28;20194;-74
2022/12/02 11:35:05;;;;;;;47.57;24.63;;;;;;;-145.68;100.00;63218.00;10443761;28;20191;-75
2022/12/02 11:40:10;;;;;;;58.07;35.93;;;;;;;-145.68;100.00;63218.00;10426436;28;20228;-74
2022/12/02 11:45:16;;;;;;;47.67;24.70;;;;;;;-145.68;100.00;63218.00;10416262;28;20275;-75
2022/12/02 11:50:26;;;;;;;49.90;23.77;;;;;;;-145.68;100.00;63218.00;10417637;28;20668;-74
2022/12/02 11:55:41;;;;;;;48.00;24.67;;;;;;;-145.68;100.00;63218.00;10387762;28;20200;-75
2022/12/02 12:01:02;;;;;;;51.03;25.40;;;;;;;-145.68;100.00;63218.00;10411697;28;20212;-74
2022/12/02 12:06:07;;;;;;;49.13;24.53;;;;;;;-145.68;100.00;63218.00;10409524;28;20210;-74
2022/12/02 12:11:33;;;;;;;49.57;25.93;;;;;;;-145.68;100.00;63218.00;10410216;28;20193;-74
2022/12/02 12:16:37;;;;;;;50.57;25.47;;;;;;;-145.68;100.00;63218.00;10410200;28;20660;-74
2022/12/02 12:21:41;;;;;;;54.27;26.13;;;;;;;-145.68;100.00;63218.00;10433613;28;20588;-74
2022/12/02 12:26:43;;;;;;;53.63;25.10;;;;;;;-145.68;100.00;63218.00;10450129;28;20240;-75
2022/12/02 12:31:43;;;;;;;47.77;23.83;;;;;;;-145.68;100.00;63218.00;10432737;28;20605;-74
2022/12/02 12:36:44;;;;;;;49.17;24.70;;;;;;;-145.68;100.00;63218.00;10431603;28;20216;-74
2022/12/02 12:41:45;;;;;;;48.67;25.13;;;;;;;-145.68;100.00;63218.00;10450371;28;20211;-74
2022/12/02 12:46:45;;;;;;;49.43;24.03;;;;;;;-145.68;100.00;63218.00;10449922;28;20195;-74
2022/12/02 12:51:46;;;;;;;51.33;24.93;;;;;;;-145.68;100.00;63218.00;10449847;28;20207;-74
2022/12/02 12:56:46;;;;;;;56.00;25.03;;;;;;;-145.68;100.00;63218.00;10451430;28;20274;-75
2022/12/02 13:01:46;;;;;;;50.23;24.73;;;;;;;-145.68;100.00;63218.00;10451895;28;20258;-74
2022/12/02 13:06:47;;;;;;;52.23;25.87;;;;;;;-145.68;100.00;63218.00;10450826;28;20206;-74
2022/12/02 13:11:47;;;;;;;45.43;22.60;;;;;;;-145.68;100.00;63218.00;10451155;28;20553;-74
2022/12/02 13:16:48;;;;;;;46.93;24.60;;;;;;;-145.68;100.00;63218.00;10451845;28;20192;-74
2022/12/02 13:21:48;;;;;;;53.40;27.63;;;;;;;-145.68;100.00;63218.00;10451113;28;20230;-75
2022/12/02 13:26:49;;;;;;;46.07;23.47;;;;;;;-145.68;100.00;63218.00;10450291;28;20711;-75
2022/12/02 13:31:49;;;;;;;45.70;23.70;;;;;;;-145.68;100.00;63218.00;10451033;28;20176;-74
2022/12/02 13:36:50;;;;;;;53.70;26.77;;;;;;;-145.68;100.00;63218.00;10449904;28;20685;-75
2022/12/02 13:41:50;;;;;;;49.37;23.93;;;;;;;-145.68;100.00;63218.00;10447842;28;20219;-74
2022/12/02 13:46:51;;;;;;;50.47;24.73;;;;;;;-145.68;100.00;63218.00;10448005;28;20184;-74
2022/12/02 13:51:51;;;;;;;46.70;23.43;;;;;;;-145.68;100.00;63218.00;10450063;28;20194;-75
2022/12/02 13:56:52;;;;;;;51.27;24.27;;;;;;;-145.68;100.00;63218.00;10440098;28;20229;-74
2022/12/02 14:01:52;;;;;;;46.93;24.43;;;;;;;-145.68;100.00;63218.00;10413915;28;20215;-75
2022/12/02 14:06:52;;;;;;;45.70;25.10;;;;;;;-145.68;100.00;63218.00;10419150;28;20646;-74
2022/12/02 14:11:53;;;;;;;53.10;24.87;;;;;;;-145.68;100.00;63218.00;10389954;28;20185;-74
2022/12/02 14:16:53;;;;;;;52.70;25.23;;;;;;;-145.68;100.00;63218.00;10407309;28;20205;-74
2022/12/02 14:22:29;;;;;;;52.00;25.40;;;;;;;-145.68;100.00;63218.00;10423536;28;20266;-75
2022/12/02 14:27:34;;;;;;;50.70;24.87;;;;;;;-145.68;100.00;63218.00;10365579;28;20243;-75
2022/12/02 14:32:46;;;;;;;57.53;26.50;;;;;;;-145.68;100.00;63218.00;10398402;28;20201;-74
2022/12/02 14:37:48;;;;;;;61.87;32.73;;;;;;;-145.68;100.00;63218.00;10406566;28;20234;-74
2022/12/02 14:42:48;;;;;;;52.07;27.33;;;;;;;-145.68;100.00;63218.00;10404288;28;20220;-74
2022/12/02 14:47:49;;;;;;;56.53;26.00;;;;;;;-145.68;100.00;63218.00;10384848;28;20198;-74
2022/12/02 14:52:49;;;;;;;53.47;25.40;;;;;;;-145.68;100.00;63218.00;10381965;28;20189;-74
2022/12/02 14:57:49;;;;;;;56.63;26.10;;;;;;;-145.68;100.00;63218.00;10381156;28;20243;-75
2022/12/02 15:02:50;;;;;;;59.90;26.70;;;;;;;-145.68;100.00;63218.00;10377719;28;20705;-74
2022/12/02 15:07:50;;;;;;;60.13;28.47;;;;;;;-145.68;100.00;63218.00;10393227;28;20188;-74
2022/12/02 15:12:51;;;;;;;62.00;27.97;;;;;;;-145.68;100.00;63218.00;10402602;28;20188;-73
2022/12/02 15:17:51;;;;;;;121.90;54.90;;;;;;;-145.68;100.00;63218.00;10404942;28;20185;-74
2022/12/02 15:22:52;;;;;;;71.63;32.33;;;;;;;-145.68;100.00;63218.00;10396971;28;20217;-73
2022/12/02 15:27:53;;;;;;;64.00;32.97;;;;;;;-145.68;100.00;63218.00;10403925;28;20192;-74
2022/12/02 15:32:53;;;;;;;61.07;30.93;;;;;;;-145.68;100.00;63218.00;10411417;28;20203;-74
2022/12/02 15:37:53;;;;;;;72.30;34.67;;;;;;;-145.68;100.00;63218.00;10414379;28;20235;-74
2022/12/02 15:42:54;;;;;;;69.90;31.40;;;;;;;-145.68;100.00;63218.00;10413602;28;20215;-74
2022/12/02 15:47:54;;;;;;;80.30;36.93;;;;;;;-145.68;100.00;63218.00;10411876;28;20201;-74
2022/12/02 15:52:54;;;;;;;61.43;30.23;;;;;;;-145.68;100.00;63218.00;10411436;28;20676;-74
2022/12/02 15:57:55;;;;;;;64.63;29.07;;;;;;;-145.68;100.00;63218.00;10412505;28;20604;-74
2022/12/02 16:02:55;;;;;;;71.77;34.73;;;;;;;-145.68;100.00;63218.00;10413637;28;20220;-74
2022/12/02 16:07:55;;;;;;;73.37;32.50;;;;;;;-145.68;100.00;63218.00;10413114;28;20258;-75
2022/12/02 16:12:56;;;;;;;59.67;28.70;;;;;;;-145.68;100.00;63218.00;10395493;28;20192;-74
2022/12/02 16:17:56;;;;;;;65.43;30.13;;;;;;;-145.68;100.00;63218.00;10413451;28;20184;-74
2022/12/02 16:22:57;;;;;;;60.47;29.57;;;;;;;-145.68;100.00;63218.00;10410864;28;20224;-74
2022/12/02 16:27:57;;;;;;;69.53;30.60;;;;;;;-145.68;100.00;63218.00;10411032;28;20692;-74
2022/12/02 16:32:57;;;;;;;75.63;30.10;;;;;;;-145.68;100.00;63218.00;10410265;28;20185;-74
2022/12/02 16:37:58;;;;;;;70.53;30.30;;;;;;;-145.68;100.00;63218.00;10412040;28;20700;-74
2022/12/02 16:43:00;;;;;;;65.00;29.07;;;;;;;-145.68;100.00;63218.00;10411630;28;20224;-74
2022/12/02 16:48:01;;;;;;;75.83;30.00;;;;;;;-145.68;100.00;63218.00;10412161;28;20299;-74
2022/12/02 16:53:01;;;;;;;168.40;80.60;;;;;;;-145.68;100.00;63218.00;10410322;28;20192;-75
2022/12/02 16:58:01;;;;;;;83.23;38.53;;;;;;;-145.68;100.00;63218.00;10411805;28;20184;-74
2022/12/02 17:03:02;;;;;;;70.23;34.87;;;;;;;-145.68;100.00;63218.00;10411260;28;20273;-74
2022/12/02 17:08:02;;;;;;;73.47;31.67;;;;;;;-145.68;100.00;63218.00;10381297;28;20189;-75
2022/12/02 17:13:03;;;;;;;62.30;30.13;;;;;;;-145.68;100.00;63218.00;10396886;28;20201;-73
2022/12/02 17:18:03;;;;;;;67.20;29.73;;;;;;;-145.68;100.00;63218.00;10410365;28;20720;-74
2022/12/02 17:23:04;;;;;;;69.97;29.87;;;;;;;-145.68;100.00;63218.00;10409927;28;20234;-74
2022/12/02 17:28:04;;;;;;;70.77;28.70;;;;;;;-145.68;100.00;63218.00;10453295;28;20184;-74
2022/12/02 17:33:04;;;;;;;70.67;29.87;;;;;;;-145.68;100.00;63218.00;10451644;28;20200;-74
2022/12/02 17:38:05;;;;;;;65.93;28.83;;;;;;;-145.68;100.00;63218.00;10452082;28;20759;-74
2022/12/02 17:43:05;;;;;;;64.83;29.33;;;;;;;-145.68;100.00;63218.00;10451573;28;20223;-74
2022/12/02 17:48:05;;;;;;;69.10;30.30;;;;;;;-145.68;100.00;63218.00;10450364;28;20203;-74
2022/12/02 17:53:06;;;;;;;77.07;35.33;;;;;;;-145.68;100.00;63218.00;10437336;28;20675;-74
2022/12/02 17:58:06;;;;;;;265.67;101.00;;;;;;;-145.68;100.00;63218.00;10451956;28;20601;-74
2022/12/02 18:03:07;;;;;;;75.07;31.37;;;;;;;-145.68;100.00;63218.00;10452050;28;20246;-74
2022/12/02 18:08:07;;;;;;;70.63;31.80;;;;;;;-145.68;100.00;63218.00;10452121;28;20198;-74
2022/12/02 18:13:07;;;;;;;76.23;32.50;;;;;;;-145.68;100.00;63218.00;10434605;28;20195;-73
2022/12/02 18:18:09;;;;;;;74.37;32.73;;;;;;;-145.68;100.00;63218.00;10452428;28;20198;-73
2022/12/02 18:23:10;;;;;;;71.97;34.23;;;;;;;-145.68;100.00;63218.00;10451727;28;20742;-75
2022/12/02 18:28:10;;;;;;;64.77;31.20;;;;;;;-145.68;100.00;63218.00;10452741;28;20579;-75
2022/12/02 18:33:11;;;;;;;73.53;33.73;;;;;;;-145.68;100.00;63218.00;10433728;28;20192;-75
2022/12/02 18:38:11;;;;;;;73.10;31.73;;;;;;;-145.68;100.00;63218.00;10434262;28;20238;-75
2022/12/02 18:43:11;;;;;;;81.90;34.23;;;;;;;-145.68;100.00;63218.00;10447506;28;20222;-75
2022/12/02 18:48:12;;;;;;;105.70;43.43;;;;;;;-145.68;100.00;63218.00;10418979;28;20204;-73
2022/12/02 18:53:12;;;;;;;76.60;36.60;;;;;;;-145.68;100.00;63218.00;10426043;28;20239;-75
2022/12/02 18:58:13;;;;;;;84.03;34.90;;;;;;;-145.68;100.00;63218.00;10427827;28;20189;-75
2022/12/02 19:03:13;;;;;;;74.47;33.97;;;;;;;-145.68;100.00;63218.00;10439491;28;20715;-75
2022/12/02 19:08:13;;;;;;;71.07;31.53;;;;;;;-145.68;100.00;63218.00;10449838;28;20261;-75
2022/12/02 19:13:14;;;;;;;69.23;31.60;;;;;;;-145.68;100.00;63218.00;10422825;28;20191;-73
2022/12/02 19:18:15;;;;;;;71.07;30.73;;;;;;;-145.68;100.00;63218.00;10425818;28;20246;-73
2022/12/02 19:23:15;;;;;;;68.90;29.80;;;;;;;-145.68;100.00;63218.00;10428583;28;20700;-73
2022/12/02 19:28:15;;;;;;;69.57;30.20;;;;;;;-145.68;100.00;63218.00;10426041;28;20243;-73
2022/12/02 19:33:16;;;;;;;70.53;31.13;;;;;;;-145.68;100.00;63218.00;10428136;28;20181;-73
2022/12/02 19:38:16;;;;;;;73.73;32.80;;;;;;;-145.68;100.00;63218.00;10428966;28;20224;-74
2022/12/02 19:43:17;;;;;;;68.40;30.57;;;;;;;-145.68;100.00;63218.00;10426663;28;20220;-74
2022/12/02 19:48:17;;;;;;;71.00;30.90;;;;;;;-145.68;100.00;63218.00;10428475;28;20974;-75
2022/12/02 19:53:17;;;;;;;70.77;31.13;;;;;;;-145.68;100.00;63218.00;10429356;28;20196;-75
2022/12/02 19:58:18;;;;;;;76.30;32.57;;;;;;;-145.68;100.00;63218.00;10422239;28;20185;-75
2022/12/02 20:03:18;;;;;;;82.23;35.27;;;;;;;-145.68;100.00;63218.00;10421471;28;20212;-75
2022/12/02 20:08:19;;;;;;;81.57;33.90;;;;;;;-145.68;100.00;63218.00;10414306;28;20196;-75
2022/12/02 20:13:19;;;;;;;70.90;30.63;;;;;;;-145.68;100.00;63218.00;10426810;28;20188;-74
2022/12/02 20:18:19;;;;;;;76.50;31.77;;;;;;;-145.68;100.00;63218.00;10432565;28;20272;-75
2022/12/02 20:23:20;;;;;;;74.23;31.67;;;;;;;-145.68;100.00;63218.00;10422406;28;20596;-75
2022/12/02 20:28:20;;;;;;;68.73;31.00;;;;;;;-145.68;100.00;63218.00;10456412;28;20269;-73
2022/12/02 20:33:21;;;;;;;71.73;31.00;;;;;;;-145.68;100.00;63218.00;10455221;28;20188;-75
2022/12/02 20:38:21;;;;;;;72.07;31.40;;;;;;;-145.68;100.00;63218.00;10455803;28;20215;-75
2022/12/02 20:43:21;;;;;;;73.07;31.43;;;;;;;-145.68;100.00;63218.00;10437388;28;20221;-75
2022/12/02 20:48:22;;;;;;;74.63;31.57;;;;;;;-145.68;100.00;63218.00;10439980;28;20551;-73
2022/12/02 20:53:22;;;;;;;68.33;29.90;;;;;;;-145.68;100.00;63218.00;10414394;28;20207;-75
2022/12/02 20:58:22;;;;;;;66.77;30.23;;;;;;;-145.68;100.00;63218.00;10432131;28;20188;-75
2022/12/02 21:03:23;;;;;;;77.07;31.87;;;;;;;-145.68;100.00;63218.00;10431624;28;20729;-73
2022/12/02 21:08:23;;;;;;;76.23;31.83;;;;;;;-145.68;100.00;63218.00;10432266;28;20549;-75
2022/12/02 21:13:24;;;;;;;77.03;33.17;;;;;;;-145.68;100.00;63218.00;10430025;28;20192;-75
2022/12/02 21:18:25;;;;;;;69.73;31.80;;;;;;;-145.68;100.00;63218.00;10429973;28;20249;-73
2022/12/02 21:23:25;;;;;;;66.40;29.57;;;;;;;-145.68;100.00;63218.00;10429193;28;20708;-75
2022/12/02 21:28:25;;;;;;;74.27;31.93;;;;;;;-145.68;100.00;63218.00;10451540;28;20191;-75
2022/12/02 21:33:26;;;;;;;69.73;29.57;;;;;;;-145.68;100.00;63218.00;10452315;28;20258;-75
2022/12/02 21:38:27;;;;;;;68.17;30.87;;;;;;;-145.68;100.00;63218.00;10436322;28;20206;-75
2022/12/02 21:43:27;;;;;;;71.30;30.17;;;;;;;-145.68;100.00;63218.00;10453742;28;20230;-75
2022/12/02 21:48:27;;;;;;;64.70;30.00;;;;;;;-145.68;100.00;63218.00;10453741;28;20656;-73
2022/12/02 21:53:28;;;;;;;68.70;30.37;;;;;;;-145.68;100.00;63218.00;10435622;28;20188;-75
2022/12/02 21:58:30;;;;;;;70.33;30.83;;;;;;;-145.68;100.00;63218.00;10453418;28;20199;-73
2022/12/02 22:03:32;;;;;;;70.17;30.20;;;;;;;-145.68;100.00;63218.00;10434885;28;20765;-73
2022/12/02 22:08:32;;;;;;;72.30;30.03;;;;;;;-145.68;100.00;63218.00;10453181;28;20196;-73